sensor_id;sensor_type;location;lat;lon;timestamp;P1;durP1;ratioP1;P2;durP2;ratioP2
57113;SDS011;42994;51.606;9.988;2023-08-21T00:00:21;10.23;;;6.63;;
57113;SDS011;42994;51.606;9.988;2023-08-21T00:02:48;9.65;;;6.65;;
57113;SDS011;42994;51.606;9.988;2023-08-21T00:05:16;8.20;;;6.38;;
57113;SDS011;42994;51.606;9.988;2023-08-21T00:07:43;10.90;;;5.45;;
57113;SDS011;42994;51.606;9.988;2023-08-21T00:10:10;6.80;;;6.00;;
57113;SDS011;42994;51.606;9.988;2023-08-21T00:12:39;5.82;;;5.25;;
57113;SDS011;42994;51.606;9.988;2023-08-21T00:15:08;13.02;;;6.97;;
57113;SDS011;42994;51.606;9.988;2023-08-21T00:17:35;9.88;;;6.90;;
57113;SDS011;42994;51.606;9.988;2023-08-21T00:20:02;12.60;;;6.45;;
57113;SDS011;42994;51.606;9.988;2023-08-21T00:22:29;10.13;;;6.07;;
57113;SDS011;42994;51.606;9.988;2023-08-21T00:24:56;9.45;;;6.60;;
57113;SDS011;42994;51.606;9.988;2023-08-21T00:27:22;9.88;;;6.55;;
57113;SDS011;42994;51.606;9.988;2023-08-21T00:29:49;10.20;;;6.03;;
57113;SDS011;42994;51.606;9.988;2023-08-21T00:32:17;11.77;;;6.38;;
57113;SDS011;42994;51.606;9.988;2023-08-21T00:34:44;10.63;;;6.85;;
57113;SDS011;42994;51.606;9.988;2023-08-21T00:37:10;7.18;;;6.25;;
57113;SDS011;42994;51.606;9.988;2023-08-21T00:39:37;11.30;;;6.93;;
57113;SDS011;42994;51.606;9.988;2023-08-21T00:42:04;13.30;;;7.25;;
57113;SDS011;42994;51.606;9.988;2023-08-21T00:44:32;9.20;;;6.50;;
57113;SDS011;42994;51.606;9.988;2023-08-21T00:46:59;16.33;;;7.65;;
57113;SDS011;42994;51.606;9.988;2023-08-21T00:49:27;10.27;;;5.60;;
57113;SDS011;42994;51.606;9.988;2023-08-21T00:51:55;12.07;;;5.95;;
57113;SDS011;42994;51.606;9.988;2023-08-21T00:54:23;12.05;;;6.55;;
57113;SDS011;42994;51.606;9.988;2023-08-21T00:56:49;9.65;;;6.85;;
57113;SDS011;42994;51.606;9.988;2023-08-21T00:59:17;13.07;;;6.72;;
57113;SDS011;42994;51.606;9.988;2023-08-21T01:01:44;8.93;;;6.22;;
57113;SDS011;42994;51.606;9.988;2023-08-21T01:04:11;9.82;;;5.70;;
57113;SDS011;42994;51.606;9.988;2023-08-21T01:06:39;12.05;;;4.78;;
57113;SDS011;42994;51.606;9.988;2023-08-21T01:09:08;8.90;;;5.40;;
57113;SDS011;42994;51.606;9.988;2023-08-21T01:11:41;10.82;;;5.50;;
57113;SDS011;42994;51.606;9.988;2023-08-21T01:14:13;8.15;;;4.57;;
57113;SDS011;42994;51.606;9.988;2023-08-21T01:16:50;7.60;;;4.43;;
57113;SDS011;42994;51.606;9.988;2023-08-21T01:19:25;10.02;;;4.10;;
57113;SDS011;42994;51.606;9.988;2023-08-21T01:21:58;6.85;;;4.00;;
57113;SDS011;42994;51.606;9.988;2023-08-21T01:24:27;4.97;;;4.10;;
57113;SDS011;42994;51.606;9.988;2023-08-21T01:26:53;8.98;;;4.55;;
57113;SDS011;42994;51.606;9.988;2023-08-21T01:29:20;9.82;;;3.92;;
57113;SDS011;42994;51.606;9.988;2023-08-21T01:31:48;8.45;;;4.07;;
57113;SDS011;42994;51.606;9.988;2023-08-21T01:34:20;8.85;;;4.10;;
57113;SDS011;42994;51.606;9.988;2023-08-21T01:36:48;6.40;;;4.40;;
57113;SDS011;42994;51.606;9.988;2023-08-21T01:39:18;8.75;;;5.10;;
57113;SDS011;42994;51.606;9.988;2023-08-21T01:41:48;9.43;;;5.00;;
57113;SDS011;42994;51.606;9.988;2023-08-21T01:44:15;8.07;;;4.30;;
57113;SDS011;42994;51.606;9.988;2023-08-21T01:46:41;6.13;;;4.32;;
57113;SDS011;42994;51.606;9.988;2023-08-21T01:49:08;14.85;;;5.28;;
57113;SDS011;42994;51.606;9.988;2023-08-21T01:51:34;9.40;;;4.95;;
57113;SDS011;42994;51.606;9.988;2023-08-21T01:54:01;10.07;;;5.10;;
57113;SDS011;42994;51.606;9.988;2023-08-21T01:56:29;7.40;;;4.55;;
57113;SDS011;42994;51.606;9.988;2023-08-21T01:58:57;9.85;;;4.53;;
57113;SDS011;42994;51.606;9.988;2023-08-21T02:01:23;8.25;;;4.20;;
57113;SDS011;42994;51.606;9.988;2023-08-21T02:03:50;8.25;;;4.63;;
57113;SDS011;42994;51.606;9.988;2023-08-21T02:06:17;7.60;;;4.60;;
57113;SDS011;42994;51.606;9.988;2023-08-21T02:08:44;9.05;;;5.50;;
57113;SDS011;42994;51.606;9.988;2023-08-21T02:11:10;7.88;;;5.70;;
57113;SDS011;42994;51.606;9.988;2023-08-21T02:13:37;9.88;;;5.63;;
57113;SDS011;42994;51.606;9.988;2023-08-21T02:16:05;12.30;;;7.15;;
57113;SDS011;42994;51.606;9.988;2023-08-21T02:18:31;12.13;;;5.68;;
57113;SDS011;42994;51.606;9.988;2023-08-21T02:20:59;14.27;;;6.45;;
57113;SDS011;42994;51.606;9.988;2023-08-21T02:23:26;12.32;;;6.43;;
57113;SDS011;42994;51.606;9.988;2023-08-21T02:25:54;9.23;;;6.28;;
57113;SDS011;42994;51.606;9.988;2023-08-21T02:28:20;11.13;;;6.07;;
57113;SDS011;42994;51.606;9.988;2023-08-21T02:30:50;10.88;;;6.40;;
57113;SDS011;42994;51.606;9.988;2023-08-21T02:33:18;9.20;;;5.63;;
57113;SDS011;42994;51.606;9.988;2023-08-21T02:35:45;8.68;;;5.13;;
57113;SDS011;42994;51.606;9.988;2023-08-21T02:38:11;9.32;;;4.93;;
57113;SDS011;42994;51.606;9.988;2023-08-21T02:40:38;7.47;;;4.88;;
57113;SDS011;42994;51.606;9.988;2023-08-21T02:43:05;7.03;;;4.00;;
57113;SDS011;42994;51.606;9.988;2023-08-21T02:45:31;11.25;;;3.90;;
57113;SDS011;42994;51.606;9.988;2023-08-21T02:47:58;7.35;;;4.63;;
57113;SDS011;42994;51.606;9.988;2023-08-21T02:50:26;6.60;;;4.07;;
57113;SDS011;42994;51.606;9.988;2023-08-21T02:52:53;9.48;;;4.85;;
57113;SDS011;42994;51.606;9.988;2023-08-21T02:55:19;8.00;;;5.35;;
57113;SDS011;42994;51.606;9.988;2023-08-21T02:57:46;6.13;;;4.75;;
57113;SDS011;42994;51.606;9.988;2023-08-21T03:00:14;8.45;;;4.78;;
57113;SDS011;42994;51.606;9.988;2023-08-21T03:02:41;13.02;;;5.65;;
57113;SDS011;42994;51.606;9.988;2023-08-21T03:05:08;9.70;;;6.38;;
57113;SDS011;42994;51.606;9.988;2023-08-21T03:07:37;11.43;;;5.75;;
57113;SDS011;42994;51.606;9.988;2023-08-21T03:10:04;11.80;;;5.90;;
57113;SDS011;42994;51.606;9.988;2023-08-21T03:12:31;11.27;;;5.13;;
57113;SDS011;42994;51.606;9.988;2023-08-21T03:14:58;11.57;;;5.10;;
57113;SDS011;42994;51.606;9.988;2023-08-21T03:17:25;6.85;;;4.85;;
57113;SDS011;42994;51.606;9.988;2023-08-21T03:19:51;10.60;;;5.32;;
57113;SDS011;42994;51.606;9.988;2023-08-21T03:22:18;8.95;;;5.20;;
57113;SDS011;42994;51.606;9.988;2023-08-21T03:24:46;9.95;;;4.70;;
57113;SDS011;42994;51.606;9.988;2023-08-21T03:27:14;9.82;;;4.78;;
57113;SDS011;42994;51.606;9.988;2023-08-21T03:29:41;10.52;;;4.82;;
57113;SDS011;42994;51.606;9.988;2023-08-21T03:32:13;10.43;;;5.57;;
57113;SDS011;42994;51.606;9.988;2023-08-21T03:34:40;6.72;;;4.63;;
57113;SDS011;42994;51.606;9.988;2023-08-21T03:37:07;10.00;;;4.43;;
57113;SDS011;42994;51.606;9.988;2023-08-21T03:39:34;9.73;;;4.65;;
57113;SDS011;42994;51.606;9.988;2023-08-21T03:42:03;10.73;;;4.45;;
57113;SDS011;42994;51.606;9.988;2023-08-21T03:44:30;7.50;;;4.63;;
57113;SDS011;42994;51.606;9.988;2023-08-21T03:46:58;11.95;;;5.03;;
57113;SDS011;42994;51.606;9.988;2023-08-21T03:49:25;7.90;;;4.47;;
57113;SDS011;42994;51.606;9.988;2023-08-21T03:51:53;11.70;;;4.00;;
57113;SDS011;42994;51.606;9.988;2023-08-21T03:54:20;4.90;;;4.03;;
57113;SDS011;42994;51.606;9.988;2023-08-21T03:56:46;11.70;;;4.85;;
57113;SDS011;42994;51.606;9.988;2023-08-21T03:59:14;11.88;;;4.68;;
57113;SDS011;42994;51.606;9.988;2023-08-21T04:01:41;9.63;;;4.43;;
57113;SDS011;42994;51.606;9.988;2023-08-21T04:04:09;8.43;;;4.55;;
57113;SDS011;42994;51.606;9.988;2023-08-21T04:06:36;9.90;;;5.13;;
57113;SDS011;42994;51.606;9.988;2023-08-21T04:09:02;5.95;;;4.45;;
57113;SDS011;42994;51.606;9.988;2023-08-21T04:11:31;6.63;;;4.10;;
57113;SDS011;42994;51.606;9.988;2023-08-21T04:13:58;7.20;;;4.55;;
57113;SDS011;42994;51.606;9.988;2023-08-21T04:16:27;8.38;;;4.45;;
57113;SDS011;42994;51.606;9.988;2023-08-21T04:18:56;6.55;;;4.60;;
57113;SDS011;42994;51.606;9.988;2023-08-21T04:21:23;6.82;;;4.00;;
57113;SDS011;42994;51.606;9.988;2023-08-21T04:23:49;11.50;;;4.72;;
57113;SDS011;42994;51.606;9.988;2023-08-21T04:26:16;11.05;;;4.95;;
57113;SDS011;42994;51.606;9.988;2023-08-21T04:28:43;7.20;;;4.25;;
57113;SDS011;42994;51.606;9.988;2023-08-21T04:31:09;10.63;;;5.00;;
57113;SDS011;42994;51.606;9.988;2023-08-21T04:33:38;4.97;;;3.53;;
57113;SDS011;42994;51.606;9.988;2023-08-21T04:36:05;4.43;;;3.30;;
57113;SDS011;42994;51.606;9.988;2023-08-21T04:38:33;9.95;;;3.83;;
57113;SDS011;42994;51.606;9.988;2023-08-21T04:41:05;7.15;;;3.25;;
57113;SDS011;42994;51.606;9.988;2023-08-21T04:43:33;6.03;;;3.50;;
57113;SDS011;42994;51.606;9.988;2023-08-21T04:46:01;10.57;;;3.80;;
57113;SDS011;42994;51.606;9.988;2023-08-21T04:48:28;9.73;;;3.78;;
57113;SDS011;42994;51.606;9.988;2023-08-21T04:50:56;5.97;;;3.60;;
57113;SDS011;42994;51.606;9.988;2023-08-21T04:53:23;5.75;;;3.05;;
57113;SDS011;42994;51.606;9.988;2023-08-21T04:55:51;7.20;;;3.30;;
57113;SDS011;42994;51.606;9.988;2023-08-21T04:58:17;10.65;;;3.50;;
57113;SDS011;42994;51.606;9.988;2023-08-21T05:00:45;4.72;;;3.20;;
57113;SDS011;42994;51.606;9.988;2023-08-21T05:03:12;9.57;;;3.78;;
57113;SDS011;42994;51.606;9.988;2023-08-21T05:05:40;10.75;;;3.90;;
57113;SDS011;42994;51.606;9.988;2023-08-21T05:08:09;7.43;;;3.63;;
57113;SDS011;42994;51.606;9.988;2023-08-21T05:10:36;6.50;;;3.10;;
57113;SDS011;42994;51.606;9.988;2023-08-21T05:13:03;10.23;;;3.20;;
57113;SDS011;42994;51.606;9.988;2023-08-21T05:15:30;6.10;;;3.20;;
57113;SDS011;42994;51.606;9.988;2023-08-21T05:17:57;8.27;;;3.70;;
57113;SDS011;42994;51.606;9.988;2023-08-21T05:20:24;3.47;;;2.90;;
57113;SDS011;42994;51.606;9.988;2023-08-21T05:22:51;4.47;;;3.22;;
57113;SDS011;42994;51.606;9.988;2023-08-21T05:25:19;4.65;;;2.80;;
57113;SDS011;42994;51.606;9.988;2023-08-21T05:27:46;6.75;;;3.10;;
57113;SDS011;42994;51.606;9.988;2023-08-21T05:30:13;4.60;;;2.80;;
57113;SDS011;42994;51.606;9.988;2023-08-21T05:32:40;5.00;;;2.63;;
57113;SDS011;42994;51.606;9.988;2023-08-21T05:35:07;4.43;;;2.67;;
57113;SDS011;42994;51.606;9.988;2023-08-21T05:37:34;6.13;;;3.13;;
57113;SDS011;42994;51.606;9.988;2023-08-21T05:40:03;7.78;;;4.47;;
57113;SDS011;42994;51.606;9.988;2023-08-21T05:42:31;20.60;;;5.18;;
57113;SDS011;42994;51.606;9.988;2023-08-21T05:44:58;10.13;;;4.07;;
57113;SDS011;42994;51.606;9.988;2023-08-21T05:47:27;7.47;;;3.97;;
57113;SDS011;42994;51.606;9.988;2023-08-21T05:49:54;6.93;;;3.45;;
57113;SDS011;42994;51.606;9.988;2023-08-21T05:52:21;4.68;;;3.00;;
57113;SDS011;42994;51.606;9.988;2023-08-21T05:54:48;5.10;;;2.42;;
57113;SDS011;42994;51.606;9.988;2023-08-21T05:57:15;4.68;;;2.95;;
57113;SDS011;42994;51.606;9.988;2023-08-21T05:59:44;7.60;;;3.78;;
57113;SDS011;42994;51.606;9.988;2023-08-21T06:02:11;21.98;;;12.18;;
57113;SDS011;42994;51.606;9.988;2023-08-21T06:04:39;28.38;;;10.70;;
57113;SDS011;42994;51.606;9.988;2023-08-21T06:07:07;24.42;;;8.23;;
57113;SDS011;42994;51.606;9.988;2023-08-21T06:09:34;13.95;;;8.38;;
57113;SDS011;42994;51.606;9.988;2023-08-21T06:12:01;20.42;;;9.50;;
57113;SDS011;42994;51.606;9.988;2023-08-21T06:14:30;15.68;;;9.07;;
57113;SDS011;42994;51.606;9.988;2023-08-21T06:17:01;23.58;;;11.25;;
57113;SDS011;42994;51.606;9.988;2023-08-21T06:19:30;19.73;;;9.95;;
57113;SDS011;42994;51.606;9.988;2023-08-21T06:21:57;18.35;;;8.50;;
57113;SDS011;42994;51.606;9.988;2023-08-21T06:24:24;16.25;;;6.13;;
57113;SDS011;42994;51.606;9.988;2023-08-21T06:26:56;4.25;;;3.40;;
57113;SDS011;42994;51.606;9.988;2023-08-21T06:29:23;4.55;;;3.10;;
57113;SDS011;42994;51.606;9.988;2023-08-21T06:31:50;7.18;;;2.67;;
57113;SDS011;42994;51.606;9.988;2023-08-21T06:34:18;4.97;;;3.38;;
57113;SDS011;42994;51.606;9.988;2023-08-21T06:36:45;7.07;;;3.53;;
57113;SDS011;42994;51.606;9.988;2023-08-21T06:39:12;7.93;;;3.50;;
57113;SDS011;42994;51.606;9.988;2023-08-21T06:41:39;8.23;;;3.38;;
57113;SDS011;42994;51.606;9.988;2023-08-21T06:44:05;10.45;;;4.72;;
57113;SDS011;42994;51.606;9.988;2023-08-21T06:46:34;11.80;;;6.70;;
57113;SDS011;42994;51.606;9.988;2023-08-21T06:49:02;9.63;;;4.97;;
57113;SDS011;42994;51.606;9.988;2023-08-21T06:51:31;8.73;;;4.03;;
57113;SDS011;42994;51.606;9.988;2023-08-21T06:53:58;6.85;;;3.90;;
57113;SDS011;42994;51.606;9.988;2023-08-21T06:56:24;4.00;;;2.50;;
57113;SDS011;42994;51.606;9.988;2023-08-21T06:58:51;3.65;;;2.35;;
57113;SDS011;42994;51.606;9.988;2023-08-21T07:01:20;9.07;;;2.45;;
57113;SDS011;42994;51.606;9.988;2023-08-21T07:03:46;10.32;;;2.72;;
57113;SDS011;42994;51.606;9.988;2023-08-21T07:06:13;4.43;;;2.10;;
57113;SDS011;42994;51.606;9.988;2023-08-21T07:08:41;4.53;;;2.10;;
57113;SDS011;42994;51.606;9.988;2023-08-21T07:11:08;5.00;;;2.20;;
57113;SDS011;42994;51.606;9.988;2023-08-21T07:13:35;5.07;;;2.50;;
57113;SDS011;42994;51.606;9.988;2023-08-21T07:16:01;6.95;;;2.20;;
57113;SDS011;42994;51.606;9.988;2023-08-21T07:18:31;3.67;;;2.53;;
57113;SDS011;42994;51.606;9.988;2023-08-21T07:20:59;5.43;;;3.30;;
57113;SDS011;42994;51.606;9.988;2023-08-21T07:23:25;8.82;;;2.70;;
57113;SDS011;42994;51.606;9.988;2023-08-21T07:25:54;10.35;;;2.92;;
57113;SDS011;42994;51.606;9.988;2023-08-21T07:28:20;5.47;;;3.08;;
57113;SDS011;42994;51.606;9.988;2023-08-21T07:30:48;5.38;;;2.85;;
57113;SDS011;42994;51.606;9.988;2023-08-21T07:33:14;4.50;;;2.90;;
57113;SDS011;42994;51.606;9.988;2023-08-21T07:35:41;7.70;;;3.30;;
57113;SDS011;42994;51.606;9.988;2023-08-21T07:38:09;8.57;;;3.22;;
57113;SDS011;42994;51.606;9.988;2023-08-21T07:40:36;4.43;;;2.42;;
57113;SDS011;42994;51.606;9.988;2023-08-21T07:43:04;7.07;;;2.90;;
57113;SDS011;42994;51.606;9.988;2023-08-21T07:45:30;7.25;;;4.80;;
57113;SDS011;42994;51.606;9.988;2023-08-21T07:47:57;10.77;;;4.32;;
57113;SDS011;42994;51.606;9.988;2023-08-21T07:50:23;8.73;;;4.13;;
57113;SDS011;42994;51.606;9.988;2023-08-21T07:52:50;9.10;;;4.05;;
57113;SDS011;42994;51.606;9.988;2023-08-21T07:55:17;10.48;;;3.70;;
57113;SDS011;42994;51.606;9.988;2023-08-21T07:57:43;8.40;;;4.35;;
57113;SDS011;42994;51.606;9.988;2023-08-21T08:00:12;9.13;;;5.15;;
57113;SDS011;42994;51.606;9.988;2023-08-21T08:02:39;8.93;;;4.20;;
57113;SDS011;42994;51.606;9.988;2023-08-21T08:05:08;7.60;;;3.78;;
57113;SDS011;42994;51.606;9.988;2023-08-21T08:07:35;7.32;;;2.85;;
57113;SDS011;42994;51.606;9.988;2023-08-21T08:10:01;5.55;;;2.95;;
57113;SDS011;42994;51.606;9.988;2023-08-21T08:12:28;5.07;;;3.28;;
57113;SDS011;42994;51.606;9.988;2023-08-21T08:14:55;7.75;;;3.17;;
57113;SDS011;42994;51.606;9.988;2023-08-21T08:17:23;7.45;;;2.80;;
57113;SDS011;42994;51.606;9.988;2023-08-21T08:19:49;7.22;;;3.20;;
57113;SDS011;42994;51.606;9.988;2023-08-21T08:22:16;14.13;;;3.35;;
57113;SDS011;42994;51.606;9.988;2023-08-21T08:24:43;5.50;;;2.88;;
57113;SDS011;42994;51.606;9.988;2023-08-21T08:27:09;7.95;;;3.22;;
57113;SDS011;42994;51.606;9.988;2023-08-21T08:29:37;5.88;;;2.63;;
57113;SDS011;42994;51.606;9.988;2023-08-21T08:32:03;8.80;;;2.33;;
57113;SDS011;42994;51.606;9.988;2023-08-21T08:34:32;4.07;;;3.03;;
57113;SDS011;42994;51.606;9.988;2023-08-21T08:36:59;10.52;;;3.42;;
57113;SDS011;42994;51.606;9.988;2023-08-21T08:39:26;8.82;;;2.83;;
57113;SDS011;42994;51.606;9.988;2023-08-21T08:41:54;5.32;;;2.83;;
57113;SDS011;42994;51.606;9.988;2023-08-21T08:44:24;5.22;;;2.90;;
57113;SDS011;42994;51.606;9.988;2023-08-21T08:46:52;8.57;;;2.97;;
57113;SDS011;42994;51.606;9.988;2023-08-21T08:49:18;6.57;;;2.58;;
57113;SDS011;42994;51.606;9.988;2023-08-21T08:51:48;4.45;;;2.67;;
57113;SDS011;42994;51.606;9.988;2023-08-21T08:54:16;6.00;;;2.72;;
57113;SDS011;42994;51.606;9.988;2023-08-21T08:56:43;7.10;;;3.25;;
57113;SDS011;42994;51.606;9.988;2023-08-21T08:59:10;11.38;;;3.30;;
57113;SDS011;42994;51.606;9.988;2023-08-21T09:01:39;4.43;;;3.20;;
57113;SDS011;42994;51.606;9.988;2023-08-21T09:04:06;9.38;;;3.28;;
57113;SDS011;42994;51.606;9.988;2023-08-21T09:06:33;3.47;;;2.60;;
57113;SDS011;42994;51.606;9.988;2023-08-21T09:09:01;6.60;;;3.13;;
57113;SDS011;42994;51.606;9.988;2023-08-21T09:11:28;5.85;;;2.63;;
57113;SDS011;42994;51.606;9.988;2023-08-21T09:13:55;9.48;;;3.40;;
57113;SDS011;42994;51.606;9.988;2023-08-21T09:16:23;6.70;;;2.55;;
57113;SDS011;42994;51.606;9.988;2023-08-21T09:18:51;4.05;;;2.78;;
57113;SDS011;42994;51.606;9.988;2023-08-21T09:21:19;5.57;;;2.67;;
57113;SDS011;42994;51.606;9.988;2023-08-21T09:23:46;4.13;;;2.83;;
57113;SDS011;42994;51.606;9.988;2023-08-21T09:26:19;4.25;;;3.03;;
57113;SDS011;42994;51.606;9.988;2023-08-21T09:28:46;5.68;;;3.83;;
57113;SDS011;42994;51.606;9.988;2023-08-21T09:31:14;4.47;;;3.20;;
57113;SDS011;42994;51.606;9.988;2023-08-21T09:33:41;7.55;;;3.55;;
57113;SDS011;42994;51.606;9.988;2023-08-21T09:36:08;4.53;;;3.55;;
57113;SDS011;42994;51.606;9.988;2023-08-21T09:38:37;7.65;;;3.40;;
57113;SDS011;42994;51.606;9.988;2023-08-21T09:41:06;5.13;;;2.90;;
57113;SDS011;42994;51.606;9.988;2023-08-21T09:43:37;5.40;;;2.97;;
57113;SDS011;42994;51.606;9.988;2023-08-21T09:46:07;6.93;;;3.28;;
57113;SDS011;42994;51.606;9.988;2023-08-21T09:48:34;6.78;;;3.28;;
57113;SDS011;42994;51.606;9.988;2023-08-21T09:51:03;4.85;;;3.65;;
57113;SDS011;42994;51.606;9.988;2023-08-21T09:53:30;7.00;;;3.22;;
57113;SDS011;42994;51.606;9.988;2023-08-21T09:55:57;6.53;;;3.33;;
57113;SDS011;42994;51.606;9.988;2023-08-21T09:58:28;9.68;;;3.40;;
57113;SDS011;42994;51.606;9.988;2023-08-21T10:00:57;5.85;;;3.25;;
57113;SDS011;42994;51.606;9.988;2023-08-21T10:03:25;4.95;;;3.55;;
57113;SDS011;42994;51.606;9.988;2023-08-21T10:05:53;9.20;;;3.92;;
57113;SDS011;42994;51.606;9.988;2023-08-21T10:08:23;6.43;;;3.50;;
57113;SDS011;42994;51.606;9.988;2023-08-21T10:10:51;5.72;;;3.42;;
57113;SDS011;42994;51.606;9.988;2023-08-21T10:13:18;5.88;;;3.00;;
57113;SDS011;42994;51.606;9.988;2023-08-21T10:15:45;3.97;;;2.70;;
57113;SDS011;42994;51.606;9.988;2023-08-21T10:18:20;6.22;;;3.10;;
57113;SDS011;42994;51.606;9.988;2023-08-21T10:20:48;3.92;;;2.58;;
57113;SDS011;42994;51.606;9.988;2023-08-21T10:23:26;8.65;;;2.50;;
57113;SDS011;42994;51.606;9.988;2023-08-21T10:25:56;7.63;;;2.40;;
57113;SDS011;42994;51.606;9.988;2023-08-21T10:28:24;4.25;;;2.28;;
57113;SDS011;42994;51.606;9.988;2023-08-21T10:30:50;5.72;;;2.63;;
57113;SDS011;42994;51.606;9.988;2023-08-21T10:33:17;4.38;;;2.28;;
57113;SDS011;42994;51.606;9.988;2023-08-21T10:36:14;7.00;;;2.50;;
57113;SDS011;42994;51.606;9.988;2023-08-21T10:39:01;7.95;;;2.78;;
57113;SDS011;42994;51.606;9.988;2023-08-21T10:41:29;8.75;;;3.05;;
57113;SDS011;42994;51.606;9.988;2023-08-21T10:43:56;8.48;;;3.05;;
57113;SDS011;42994;51.606;9.988;2023-08-21T10:46:23;3.75;;;2.40;;
57113;SDS011;42994;51.606;9.988;2023-08-21T10:48:51;6.88;;;3.03;;
57113;SDS011;42994;51.606;9.988;2023-08-21T10:51:17;4.70;;;3.15;;
57113;SDS011;42994;51.606;9.988;2023-08-21T10:53:45;3.42;;;2.55;;
57113;SDS011;42994;51.606;9.988;2023-08-21T10:56:11;5.15;;;3.63;;
57113;SDS011;42994;51.606;9.988;2023-08-21T10:58:38;7.68;;;3.20;;
57113;SDS011;42994;51.606;9.988;2023-08-21T11:01:07;7.50;;;3.30;;
57113;SDS011;42994;51.606;9.988;2023-08-21T11:03:34;4.75;;;2.97;;
57113;SDS011;42994;51.606;9.988;2023-08-21T11:06:06;5.47;;;2.83;;
57113;SDS011;42994;51.606;9.988;2023-08-21T11:08:33;3.70;;;2.42;;
57113;SDS011;42994;51.606;9.988;2023-08-21T11:11:02;3.58;;;2.40;;
57113;SDS011;42994;51.606;9.988;2023-08-21T11:13:29;10.30;;;3.55;;
57113;SDS011;42994;51.606;9.988;2023-08-21T11:15:59;7.38;;;2.50;;
57113;SDS011;42994;51.606;9.988;2023-08-21T11:18:30;9.50;;;3.58;;
57113;SDS011;42994;51.606;9.988;2023-08-21T11:21:06;5.95;;;3.20;;
57113;SDS011;42994;51.606;9.988;2023-08-21T11:23:34;5.32;;;2.92;;
57113;SDS011;42994;51.606;9.988;2023-08-21T11:26:02;4.22;;;2.47;;
57113;SDS011;42994;51.606;9.988;2023-08-21T11:28:30;8.57;;;2.75;;
57113;SDS011;42994;51.606;9.988;2023-08-21T11:30:58;6.35;;;3.25;;
57113;SDS011;42994;51.606;9.988;2023-08-21T11:33:25;6.82;;;3.10;;
57113;SDS011;42994;51.606;9.988;2023-08-21T11:35:53;4.75;;;2.90;;
57113;SDS011;42994;51.606;9.988;2023-08-21T11:38:24;6.22;;;2.90;;
57113;SDS011;42994;51.606;9.988;2023-08-21T11:40:53;5.53;;;3.58;;
57113;SDS011;42994;51.606;9.988;2023-08-21T11:43:20;4.07;;;2.72;;
57113;SDS011;42994;51.606;9.988;2023-08-21T11:45:47;5.18;;;2.95;;
57113;SDS011;42994;51.606;9.988;2023-08-21T11:48:14;7.13;;;3.00;;
57113;SDS011;42994;51.606;9.988;2023-08-21T11:50:41;5.57;;;3.35;;
57113;SDS011;42994;51.606;9.988;2023-08-21T11:53:08;5.32;;;2.90;;
57113;SDS011;42994;51.606;9.988;2023-08-21T11:55:37;5.93;;;2.97;;
57113;SDS011;42994;51.606;9.988;2023-08-21T11:58:05;6.57;;;3.00;;
57113;SDS011;42994;51.606;9.988;2023-08-21T12:00:31;3.55;;;2.88;;
57113;SDS011;42994;51.606;9.988;2023-08-21T12:02:59;9.40;;;3.13;;
57113;SDS011;42994;51.606;9.988;2023-08-21T12:05:28;8.90;;;3.40;;
57113;SDS011;42994;51.606;9.988;2023-08-21T12:07:55;4.07;;;2.95;;
57113;SDS011;42994;51.606;9.988;2023-08-21T12:10:22;5.20;;;2.75;;
57113;SDS011;42994;51.606;9.988;2023-08-21T12:12:51;8.40;;;3.08;;
57113;SDS011;42994;51.606;9.988;2023-08-21T12:15:17;5.13;;;2.75;;
57113;SDS011;42994;51.606;9.988;2023-08-21T12:17:44;6.47;;;3.28;;
57113;SDS011;42994;51.606;9.988;2023-08-21T12:20:11;8.20;;;3.50;;
57113;SDS011;42994;51.606;9.988;2023-08-21T12:22:38;5.25;;;2.85;;
57113;SDS011;42994;51.606;9.988;2023-08-21T12:25:05;7.13;;;3.33;;
57113;SDS011;42994;51.606;9.988;2023-08-21T12:27:33;10.18;;;3.35;;
57113;SDS011;42994;51.606;9.988;2023-08-21T12:30:01;6.18;;;3.30;;
57113;SDS011;42994;51.606;9.988;2023-08-21T12:32:28;5.15;;;3.22;;
57113;SDS011;42994;51.606;9.988;2023-08-21T12:34:55;3.95;;;3.20;;
57113;SDS011;42994;51.606;9.988;2023-08-21T12:37:22;6.45;;;3.40;;
57113;SDS011;42994;51.606;9.988;2023-08-21T12:39:48;9.18;;;3.63;;
57113;SDS011;42994;51.606;9.988;2023-08-21T12:42:15;5.88;;;3.05;;
57113;SDS011;42994;51.606;9.988;2023-08-21T12:44:42;5.72;;;3.20;;
57113;SDS011;42994;51.606;9.988;2023-08-21T12:47:10;4.47;;;3.40;;
57113;SDS011;42994;51.606;9.988;2023-08-21T12:49:37;8.57;;;3.45;;
57113;SDS011;42994;51.606;9.988;2023-08-21T12:52:04;9.93;;;3.90;;
57113;SDS011;42994;51.606;9.988;2023-08-21T12:54:32;12.48;;;4.68;;
57113;SDS011;42994;51.606;9.988;2023-08-21T12:56:58;11.20;;;4.32;;
57113;SDS011;42994;51.606;9.988;2023-08-21T12:59:25;5.32;;;3.10;;
57113;SDS011;42994;51.606;9.988;2023-08-21T13:01:52;4.78;;;2.92;;
57113;SDS011;42994;51.606;9.988;2023-08-21T13:04:19;7.05;;;3.50;;
57113;SDS011;42994;51.606;9.988;2023-08-21T13:06:46;8.10;;;4.05;;
57113;SDS011;42994;51.606;9.988;2023-08-21T13:09:13;6.00;;;3.58;;
57113;SDS011;42994;51.606;9.988;2023-08-21T13:11:39;6.40;;;3.92;;
57113;SDS011;42994;51.606;9.988;2023-08-21T13:14:08;6.78;;;3.95;;
57113;SDS011;42994;51.606;9.988;2023-08-21T13:16:35;7.68;;;3.83;;
57113;SDS011;42994;51.606;9.988;2023-08-21T13:19:01;6.93;;;3.70;;
57113;SDS011;42994;51.606;9.988;2023-08-21T13:21:29;6.05;;;3.67;;
57113;SDS011;42994;51.606;9.988;2023-08-21T13:23:56;5.00;;;3.42;;
57113;SDS011;42994;51.606;9.988;2023-08-21T13:26:22;7.85;;;3.47;;
57113;SDS011;42994;51.606;9.988;2023-08-21T13:28:50;7.20;;;3.20;;
57113;SDS011;42994;51.606;9.988;2023-08-21T13:31:17;5.95;;;3.58;;
57113;SDS011;42994;51.606;9.988;2023-08-21T13:33:44;4.45;;;2.83;;
57113;SDS011;42994;51.606;9.988;2023-08-21T13:36:11;8.75;;;3.78;;
57113;SDS011;42994;51.606;9.988;2023-08-21T13:38:39;6.22;;;2.90;;
57113;SDS011;42994;51.606;9.988;2023-08-21T13:41:06;7.90;;;3.25;;
57113;SDS011;42994;51.606;9.988;2023-08-21T13:43:33;7.07;;;2.72;;
57113;SDS011;42994;51.606;9.988;2023-08-21T13:46:00;11.20;;;3.08;;
57113;SDS011;42994;51.606;9.988;2023-08-21T13:48:29;5.75;;;3.35;;
57113;SDS011;42994;51.606;9.988;2023-08-21T13:50:56;5.20;;;3.03;;
57113;SDS011;42994;51.606;9.988;2023-08-21T13:53:23;4.60;;;3.25;;
57113;SDS011;42994;51.606;9.988;2023-08-21T13:55:51;4.35;;;3.40;;
57113;SDS011;42994;51.606;9.988;2023-08-21T13:58:17;5.75;;;3.58;;
57113;SDS011;42994;51.606;9.988;2023-08-21T14:00:44;6.13;;;2.63;;
57113;SDS011;42994;51.606;9.988;2023-08-21T14:03:11;6.40;;;3.30;;
57113;SDS011;42994;51.606;9.988;2023-08-21T14:05:37;5.00;;;3.17;;
57113;SDS011;42994;51.606;9.988;2023-08-21T14:08:04;5.00;;;3.13;;
57113;SDS011;42994;51.606;9.988;2023-08-21T14:10:31;8.70;;;3.55;;
57113;SDS011;42994;51.606;9.988;2023-08-21T14:12:59;7.20;;;2.97;;
57113;SDS011;42994;51.606;9.988;2023-08-21T14:15:28;4.68;;;3.05;;
57113;SDS011;42994;51.606;9.988;2023-08-21T14:17:55;8.43;;;3.10;;
57113;SDS011;42994;51.606;9.988;2023-08-21T14:20:21;4.80;;;2.40;;
57113;SDS011;42994;51.606;9.988;2023-08-21T14:22:48;4.30;;;2.88;;
57113;SDS011;42994;51.606;9.988;2023-08-21T14:25:16;8.98;;;2.90;;
57113;SDS011;42994;51.606;9.988;2023-08-21T14:27:43;8.07;;;2.92;;
57113;SDS011;42994;51.606;9.988;2023-08-21T14:30:11;4.40;;;2.90;;
57113;SDS011;42994;51.606;9.988;2023-08-21T14:32:39;3.63;;;2.33;;
57113;SDS011;42994;51.606;9.988;2023-08-21T14:35:06;3.72;;;2.88;;
57113;SDS011;42994;51.606;9.988;2023-08-21T14:37:33;7.88;;;2.97;;
57113;SDS011;42994;51.606;9.988;2023-08-21T14:40:00;6.65;;;2.80;;
57113;SDS011;42994;51.606;9.988;2023-08-21T14:42:31;6.03;;;3.38;;
57113;SDS011;42994;51.606;9.988;2023-08-21T14:44:58;6.78;;;3.28;;
57113;SDS011;42994;51.606;9.988;2023-08-21T14:47:26;11.13;;;3.60;;